Time;durP1;ratioP1;P1;durP2;ratioP2;P2;SDS_P1;SDS_P2;PMS_P1;PMS_P2;Temp;Humidity;BMP_temperature;BMP_pressure;BME280_temperature;BME280_humidity;BME280_pressure;Samples;Min_cycle;Max_cycle;Signal;HPM_P1;HPM_P2
2022/06/18 00:01:51;;;;;;;;;9.00;8.67;;;;;-146.67;27.85;73246.34;5081968;27;63105;-75
2022/06/18 00:04:19;;;;;;;;;12.00;10.67;;;;;-146.67;27.87;73256.31;5086491;27;61696;-76
2022/06/18 00:07:01;;;;;;;;;10.33;10.00;;;;;-146.67;27.47;73258.31;5069286;27;63324;-75
2022/06/18 00:09:33;;;;;;;;;12.33;8.67;;;;;-146.67;27.43;73262.31;5060802;28;62344;-74
2022/06/18 00:15:14;;;;;;;;;11.50;7.75;;;;;-146.67;27.25;73270.28;5070471;28;61913;-74
2022/06/18 00:17:40;;;;;;;;;12.00;11.00;;;;;-146.67;27.64;73272.28;5043272;28;61904;-74
2022/06/18 00:20:05;;;;;;;;;14.25;10.25;;;;;-146.67;27.37;73276.28;5061587;28;61896;-75
2022/06/18 00:22:31;;;;;;;;;11.67;11.67;;;;;-146.67;27.64;73282.25;5061169;28;61738;-74
2022/06/18 00:24:56;;;;;;;;;9.33;9.00;;;;;-146.67;27.17;73278.28;5066995;28;61986;-74
2022/06/18 00:27:22;;;;;;;;;10.75;9.50;;;;;-146.67;27.55;73286.25;5043349;28;62131;-74
2022/06/18 00:29:50;;;;;;;;;9.33;9.00;;;;;-146.67;27.59;73278.28;5061898;28;61714;-75
2022/06/18 00:32:16;;;;;;;;;7.75;7.50;;;;;-146.67;27.36;73288.25;5061335;28;62830;-74
2022/06/18 00:34:41;;;;;;;;;8.75;8.50;;;;;-146.67;27.62;73284.25;5068598;28;62006;-74
2022/06/18 00:37:07;;;;;;;;;10.00;10.00;;;;;-146.67;27.22;73286.25;5065229;28;61837;-75
2022/06/18 00:39:32;;;;;;;;;8.75;8.00;;;;;-146.67;27.27;73292.25;5062175;28;61937;-74
2022/06/18 00:42:05;;;;;;;;;10.25;10.25;;;;;-146.67;27.17;73290.25;5061363;28;61927;-74
2022/06/18 00:44:35;;;;;;;;;8.75;7.25;;;;;-146.67;27.30;73292.25;5061680;28;61931;-74
2022/06/18 00:47:06;;;;;;;;;9.00;7.50;;;;;-146.67;26.82;73284.25;5061887;28;61930;-74
2022/06/18 00:49:45;;;;;;;;;10.75;8.25;;;;;-146.67;27.02;73290.25;5061384;28;61847;-74
2022/06/18 00:52:18;;;;;;;;;9.67;8.67;;;;;-146.67;26.88;73292.25;5061147;28;61919;-74
2022/06/18 00:55:11;;;;;;;;;9.00;7.00;;;;;-146.67;26.75;73294.22;5066281;28;61952;-74
2022/06/18 00:57:55;;;;;;;;;5.67;5.67;;;;;-146.67;26.81;73294.22;5079854;28;61866;-74
2022/06/18 01:00:25;;;;;;;;;7.67;6.67;;;;;-146.67;27.10;73296.22;5082384;28;61742;-74
2022/06/18 01:02:52;;;;;;;;;6.67;6.33;;;;;-146.67;26.89;73294.22;5066318;28;61978;-74
2022/06/18 01:05:24;;;;;;;;;7.00;7.00;;;;;-146.67;27.20;73306.22;5060612;28;62019;-74
2022/06/18 01:07:58;;;;;;;;;7.00;7.00;;;;;-146.67;26.94;73304.22;5077571;27;62032;-74
2022/06/18 01:10:50;;;;;;;;;5.00;5.00;;;;;-146.67;27.08;73314.19;5102659;27;61767;-74
2022/06/18 01:13:20;;;;;;;;;6.67;6.33;;;;;-146.67;27.49;73314.19;5082023;27;62663;-74
2022/06/18 01:15:47;;;;;;;;;8.67;7.00;;;;;-146.67;26.98;73316.19;5084579;28;61826;-74
2022/06/18 01:18:13;;;;;;;;;8.33;5.67;;;;;-146.67;27.25;73326.16;5101778;27;61973;-75
2022/06/18 01:20:49;;;;;;;;;8.00;7.33;;;;;-146.67;27.31;73324.16;5105605;27;62271;-74
2022/06/18 01:23:59;;;;;;;;;10.00;9.00;;;;;-146.67;27.22;73330.16;5068775;27;64999;-74
2022/06/18 01:26:27;;;;;;;;;7.00;7.00;;;;;-146.67;27.39;73326.16;5086945;27;61990;-75
2022/06/18 01:28:52;;;;;;;;;6.67;6.67;;;;;-146.67;27.44;73328.16;5105707;27;61989;-74
2022/06/18 01:31:18;;;;;;;;;9.67;7.00;;;;;-146.67;27.34;73334.16;5100087;27;61739;-74
2022/06/18 01:33:43;;;;;;;;;7.33;7.33;;;;;-146.67;27.36;73334.16;5078520;27;61726;-75
2022/06/18 01:36:10;;;;;;;;;8.67;7.00;;;;;-146.67;27.32;73334.16;5069202;27;61961;-74
2022/06/18 01:38:40;;;;;;;;;7.33;7.33;;;;;-146.67;27.36;73336.16;5085189;28;62218;-74
2022/06/18 01:44:16;;;;;;;;;6.67;6.00;;;;;-146.67;27.37;73350.13;5103531;27;62238;-74
2022/06/18 01:46:46;;;;;;;;;8.00;7.00;;;;;-146.67;27.87;73354.13;5084797;28;61717;-74
2022/06/18 01:49:16;;;;;;;;;8.33;7.00;;;;;-146.67;28.12;73350.13;5084854;27;62076;-75
2022/06/18 01:51:47;;;;;;;;;7.00;7.00;;;;;-146.67;27.76;73346.13;5075420;27;61960;-75
2022/06/18 01:54:21;;;;;;;;;7.50;7.50;;;;;-146.67;27.68;73352.13;5064578;27;61999;-75
2022/06/18 01:56:52;;;;;;;;;8.33;6.33;;;;;-146.67;27.90;73354.13;5081271;27;61935;-74
2022/06/18 01:59:32;;;;;;;;;6.00;6.00;;;;;-146.67;27.98;73362.09;5105443;27;61858;-74
2022/06/18 02:01:58;;;;;;;;;11.33;9.00;;;;;-146.67;27.79;73366.09;5086116;27;61997;-74
2022/06/18 02:04:27;;;;;;;;;9.00;6.00;;;;;-146.67;27.99;73370.06;5083750;28;61762;-74
2022/06/18 02:06:52;;;;;;;;;9.33;7.00;;;;;-146.67;27.79;73372.06;5101806;27;61967;-74
2022/06/18 02:09:36;;;;;;;;;9.00;7.00;;;;;-146.67;27.76;73374.06;5104740;27;62135;-74
2022/06/18 02:12:07;;;;;;;;;6.25;6.25;;;;;-146.67;28.04;73376.06;5083203;27;62383;-74
2022/06/18 02:14:34;;;;;;;;;7.25;6.75;;;;;-146.67;27.76;73380.06;5084061;28;61756;-74
2022/06/18 02:17:05;;;;;;;;;8.00;7.00;;;;;-146.67;27.80;73382.06;5093409;27;61849;-74
2022/06/18 02:19:34;;;;;;;;;11.33;7.67;;;;;-146.67;27.73;73384.06;5086406;27;61902;-75
2022/06/18 02:22:01;;;;;;;;;12.75;8.75;;;;;-146.67;28.29;73382.06;5072515;27;61999;-74
2022/06/18 02:24:27;;;;;;;;;11.25;10.00;;;;;-146.67;28.45;73384.06;5104194;27;61941;-74
2022/06/18 02:26:52;;;;;;;;;11.67;9.33;;;;;-146.67;28.55;73388.03;5073247;28;62172;-75
2022/06/18 02:29:21;;;;;;;;;8.67;8.67;;;;;-146.67;28.44;73386.03;5064205;28;62583;-74
2022/06/18 02:31:47;;;;;;;;;9.25;6.75;;;;;-146.67;28.41;73386.03;5082512;27;62012;-74
2022/06/18 02:34:18;;;;;;;;;10.33;9.67;;;;;-146.67;28.67;73390.03;5101693;27;62590;-74
2022/06/18 02:36:44;;;;;;;;;9.67;7.33;;;;;-146.67;28.58;73386.03;5066031;28;61883;-74
2022/06/18 02:39:25;;;;;;;;;9.25;9.25;;;;;-146.67;28.44;73392.03;5084156;27;61739;-74
2022/06/18 02:42:12;;;;;;;;;11.67;10.00;;;;;-146.67;28.75;73382.06;5088977;27;61784;-74
2022/06/18 02:44:40;;;;;;;;;9.33;9.33;;;;;-146.67;28.53;73388.03;5083165;27;61742;-74
2022/06/18 02:47:08;;;;;;;;;10.67;10.67;;;;;-146.67;28.60;73384.06;5083480;28;61949;-74
2022/06/18 02:49:39;;;;;;;;;9.33;9.00;;;;;-146.67;28.42;73376.06;5086633;27;61989;-74
2022/06/18 02:52:05;;;;;;;;;10.75;8.25;;;;;-146.67;28.50;73388.03;5068963;28;62092;-74
2022/06/18 02:54:31;;;;;;;;;11.67;8.67;;;;;-146.67;28.87;73388.03;5083008;27;62011;-74
2022/06/18 02:57:00;;;;;;;;;13.67;9.67;;;;;-146.67;28.90;73390.03;5083990;28;61718;-74
2022/06/18 02:59:26;;;;;;;;;11.33;11.33;;;;;-146.67;28.95;73396.03;5066493;27;62343;-75
2022/06/18 03:01:52;;;;;;;;;11.00;9.50;;;;;-146.67;29.07;73390.03;5079682;27;61965;-74
2022/06/18 03:04:17;;;;;;;;;8.00;8.00;;;;;-146.67;28.72;73394.03;5081441;28;62032;-74
2022/06/18 03:06:43;;;;;;;;;11.33;9.00;;;;;-146.67;28.90;73390.03;5096931;27;62005;-74
2022/06/18 03:09:10;;;;;;;;;10.50;8.00;;;;;-146.67;29.12;73396.03;5103842;27;61877;-74
2022/06/18 03:14:20;;;;;;;;;11.00;9.25;;;;;-146.67;28.79;73392.03;5082585;28;62368;-74
2022/06/18 03:16:45;;;;;;;;;8.25;8.00;;;;;-146.67;28.77;73392.03;5095092;27;61885;-74
2022/06/18 03:19:29;;;;;;;;;12.00;10.25;;;;;-146.67;28.78;73390.03;5103763;27;61909;-74
2022/06/18 03:22:02;;;;;;;;;9.25;8.00;;;;;-146.67;28.86;73394.03;5069478;28;62316;-74
2022/06/18 03:24:27;;;;;;;;;10.75;8.25;;;;;-146.67;29.25;73394.03;5069814;27;63786;-74
2022/06/18 03:26:53;;;;;;;;;8.25;8.00;;;;;-146.67;29.25;73396.03;5103876;27;61886;-73
2022/06/18 03:29:19;;;;;;;;;9.25;8.75;;;;;-146.67;29.24;73400.03;5099420;27;62028;-74
2022/06/18 03:31:44;;;;;;;;;8.50;7.25;;;;;-146.67;28.90;73406.00;5082687;28;61940;-74
2022/06/18 03:34:10;;;;;;;;;9.50;8.00;;;;;-146.67;28.85;73400.03;5061194;27;63750;-74
2022/06/18 03:36:36;;;;;;;;;11.75;7.75;;;;;-146.67;29.18;73410.00;5082015;28;61779;-73
2022/06/18 03:39:01;;;;;;;;;10.75;9.25;;;;;-146.67;28.81;73408.00;5082529;27;61846;-73
2022/06/18 03:41:27;;;;;;;;;13.75;11.50;;;;;-146.67;29.29;73412.00;5065208;28;62173;-74
2022/06/18 03:43:54;;;;;;;;;11.75;6.00;;;;;-146.67;29.26;73408.00;5063817;28;65229;-74
2022/06/18 03:46:19;;;;;;;;;13.25;12.00;;;;;-146.67;29.22;73412.00;5075006;27;61928;-73
2022/06/18 03:49:03;;;;;;;;;8.25;8.00;;;;;-146.67;29.27;73414.00;5082646;28;61863;-74
2022/06/18 03:51:29;;;;;;;;;9.25;8.75;;;;;-146.67;29.38;73419.97;5081392;28;62030;-74
2022/06/18 03:53:56;;;;;;;;;8.25;7.25;;;;;-146.67;28.97;73423.97;5081245;28;62057;-73
2022/06/18 03:56:25;;;;;;;;;7.75;7.75;;;;;-146.67;29.07;73427.97;5080299;27;62936;-74
2022/06/18 03:58:52;;;;;;;;;10.50;7.25;;;;;-146.67;29.13;73431.94;5081885;28;62069;-74
2022/06/18 04:01:27;;;;;;;;;7.00;7.00;;;;;-146.67;29.05;73431.94;5081900;27;62754;-73
2022/06/18 04:03:53;;;;;;;;;8.75;6.00;;;;;-146.67;28.95;73431.94;5081171;28;62117;-74
2022/06/18 04:06:18;;;;;;;;;9.00;7.75;;;;;-146.67;29.38;73433.94;5081713;27;61997;-74
2022/06/18 04:08:46;;;;;;;;;7.00;7.00;;;;;-146.67;28.97;73431.94;5082649;27;62468;-73
2022/06/18 04:11:12;;;;;;;;;9.25;8.25;;;;;-146.67;29.14;73427.97;5068368;28;62010;-73
2022/06/18 04:13:38;;;;;;;;;8.67;7.67;;;;;-146.67;29.15;73429.97;5080729;27;62847;-73
2022/06/18 04:16:04;;;;;;;;;7.00;7.00;;;;;-146.67;29.24;73431.94;5081230;28;61934;-73
2022/06/18 04:18:30;;;;;;;;;11.00;8.00;;;;;-146.67;28.81;73425.97;5081578;27;61965;-73
2022/06/18 04:20:56;;;;;;;;;10.00;5.50;;;;;-146.67;29.04;73423.97;5064278;28;61854;-74
2022/06/18 04:23:22;;;;;;;;;7.25;7.25;;;;;-146.67;29.18;73421.97;5082961;27;62843;-73
2022/06/18 04:25:47;;;;;;;;;8.00;8.00;;;;;-146.67;29.01;73421.97;5063199;28;61861;-73
2022/06/18 04:28:15;;;;;;;;;9.00;7.75;;;;;-146.67;28.89;73421.97;5081776;27;61820;-74
2022/06/18 04:30:41;;;;;;;;;6.75;6.75;;;;;-146.67;28.98;73427.97;5082075;28;62163;-74
2022/06/18 04:33:07;;;;;;;;;8.00;5.50;;;;;-146.67;29.20;73419.97;5081278;27;61864;-73
2022/06/18 04:35:33;;;;;;;;;8.75;6.75;;;;;-146.67;28.77;73421.97;5081264;28;61906;-74
2022/06/18 04:38:00;;;;;;;;;8.75;7.25;;;;;-146.67;28.78;73425.97;5081829;27;61914;-74
2022/06/18 04:40:32;;;;;;;;;9.00;5.00;;;;;-146.67;28.96;73421.97;5064184;28;62118;-74
2022/06/18 04:43:00;;;;;;;;;6.00;6.00;;;;;-146.67;29.04;73421.97;5081109;27;63120;-74
2022/06/18 04:45:26;;;;;;;;;7.75;6.75;;;;;-146.67;28.90;73421.97;5063150;28;61735;-74
2022/06/18 04:47:52;;;;;;;;;6.00;6.00;;;;;-146.67;29.14;73415.97;5081631;27;61780;-73
2022/06/18 04:50:21;;;;;;;;;9.00;7.00;;;;;-146.67;28.90;73410.00;5063194;28;62409;-73
2022/06/18 04:52:46;;;;;;;;;4.67;4.67;;;;;-146.67;28.75;73396.03;5081614;28;61846;-73
2022/06/18 04:55:12;;;;;;;;;6.50;5.75;;;;;-146.67;29.15;73402.00;5080062;27;61881;-74
2022/06/18 04:57:38;;;;;;;;;11.00;8.25;;;;;-146.67;28.92;73396.03;5060306;28;61978;-73
2022/06/18 05:00:07;;;;;;;;;5.50;5.50;;;;;-146.67;29.01;73390.03;5053798;27;62120;-74
2022/06/18 05:02:34;;;;;;;;;11.25;8.75;;;;;-146.67;28.85;73382.06;5101340;27;61788;-74
2022/06/18 05:04:59;;;;;;;;;7.75;6.00;;;;;-146.67;29.00;73388.03;5088950;27;61739;-74
2022/06/18 05:07:25;;;;;;;;;8.67;7.67;;;;;-146.67;29.44;73386.03;5080579;27;62020;-73
2022/06/18 05:09:50;;;;;;;;;8.00;8.00;;;;;-146.67;29.24;73374.06;5081931;28;61842;-74
2022/06/18 05:12:18;;;;;;;;;8.75;7.25;;;;;-146.67;28.88;73364.09;5082448;27;62714;-73
2022/06/18 05:14:49;;;;;;;;;9.75;7.00;;;;;-146.67;28.96;73352.13;5080808;28;61770;-73
2022/06/18 05:17:30;;;;;;;;;7.50;7.50;;;;;-146.67;29.14;73344.13;5081387;27;61995;-73
2022/06/18 05:19:56;;;;;;;;;9.33;7.33;;;;;-146.67;29.50;73336.16;5081090;28;61750;-74
2022/06/18 05:22:22;;;;;;;;;8.75;8.00;;;;;-146.67;29.20;73322.19;5080730;27;63118;-73
2022/06/18 05:24:48;;;;;;;;;8.75;8.75;;;;;-146.67;29.38;73316.19;5062114;28;61987;-74
2022/06/18 05:27:26;;;;;;;;;8.50;8.00;;;;;-146.67;29.07;73302.22;5060479;27;61784;-73
2022/06/18 05:29:52;;;;;;;;;9.50;9.50;;;;;-146.67;29.38;73288.25;5102367;27;61772;-74
2022/06/18 05:32:17;;;;;;;;;10.75;7.25;;;;;-146.67;29.17;73280.25;5099517;27;61983;-74
2022/06/18 05:34:43;;;;;;;;;9.25;8.50;;;;;-146.67;28.87;73264.31;5081036;28;61762;-74
2022/06/18 05:37:25;;;;;;;;;7.75;7.75;;;;;-146.67;28.71;73236.34;5062626;27;61818;-74
2022/06/18 05:39:50;;;;;;;;;9.00;9.00;;;;;-146.67;28.63;73216.41;5061409;28;61940;-76
2022/06/18 05:42:16;;;;;;;;;11.00;8.25;;;;;-146.67;28.62;73180.47;5061636;27;62048;-77
2022/06/18 05:44:42;;;;;;;;;9.00;8.00;;;;;-146.67;28.39;73156.53;5081624;28;61763;-78
2022/06/18 05:47:17;;;;;;;;;9.75;8.25;;;;;-146.67;28.21;73128.59;5061139;28;61977;-79
2022/06/18 05:49:42;;;;;;;;;8.67;8.67;;;;;-146.67;28.55;73098.66;5059850;28;61986;-79
2022/06/18 05:52:08;;;;;;;;;10.67;8.67;;;;;-146.67;28.66;73086.69;5096249;27;62363;-79
2022/06/18 05:54:34;;;;;;;;;11.67;9.33;;;;;-146.67;28.55;73074.69;5100449;27;62008;-78
2022/06/18 05:57:00;;;;;;;;;12.67;10.00;;;;;-146.67;28.51;73064.72;5063358;27;61783;-78
2022/06/18 05:59:26;;;;;;;;;9.00;9.00;;;;;-146.67;28.29;73052.75;5073532;27;61954;-79
2022/06/18 06:01:56;;;;;;;;;10.67;8.67;;;;;-146.67;27.62;73042.75;5084283;28;61763;-79
2022/06/18 06:04:22;;;;;;;;;7.33;7.33;;;;;-146.67;27.19;73040.78;5073362;27;61925;-79
2022/06/18 06:06:47;;;;;;;;;8.00;8.00;;;;;-146.67;26.79;73030.78;5074660;27;62054;-85
2022/06/18 06:09:13;;;;;;;;;9.67;8.67;;;;;-146.67;27.18;73014.81;5104718;27;62025;-79
2022/06/18 06:11:38;;;;;;;;;9.00;8.33;;;;;-146.67;26.58;73016.81;5098468;27;61939;-77
2022/06/18 06:14:05;;;;;;;;;11.33;8.33;;;;;-146.67;26.08;73006.84;5086473;27;62139;-81
2022/06/18 06:16:31;;;;;;;;;6.67;6.00;;;;;-146.67;26.50;73002.84;5080435;27;61844;-81
2022/06/18 06:18:56;;;;;;;;;5.67;5.67;;;;;-146.67;26.33;72996.88;5084791;28;61687;-81
2022/06/18 06:21:22;;;;;;;;;6.67;6.33;;;;;-146.67;26.17;72980.91;5086105;27;61732;-75
2022/06/18 06:23:49;;;;;;;;;6.00;6.00;;;;;-146.67;26.25;72962.94;5104657;27;61800;-76
2022/06/18 06:26:29;;;;;;;;;6.00;6.00;;;;;-146.67;25.93;72921.03;5080122;27;62062;-75
2022/06/18 06:28:54;;;;;;;;;7.67;6.00;;;;;-146.67;26.31;72889.09;5084895;28;62040;-75
2022/06/18 06:31:20;;;;;;;;;6.67;6.67;;;;;-146.67;25.76;72875.13;5085091;27;61837;-75
2022/06/18 06:33:45;;;;;;;;;8.00;6.67;;;;;-146.67;25.96;72883.13;5104722;27;62000;-75
2022/06/18 06:36:12;;;;;;;;;6.67;6.33;;;;;-146.67;25.85;72887.09;5092422;27;61841;-75
2022/06/18 06:38:39;;;;;;;;;5.33;5.33;;;;;-146.67;25.73;72897.09;5084431;28;62035;-78
2022/06/18 06:41:10;;;;;;;;;9.00;7.00;;;;;-146.67;25.68;72911.06;5091675;27;62123;-75
2022/06/18 06:43:36;;;;;;;;;6.67;6.67;;;;;-146.67;25.73;72913.03;5104880;27;61921;-74
2022/06/18 06:46:01;;;;;;;;;6.00;6.00;;;;;-146.67;25.77;72913.03;5074696;28;61666;-74
2022/06/18 06:48:27;;;;;;;;;7.33;6.00;;;;;-146.67;25.23;72903.06;5084283;28;61982;-74
2022/06/18 06:50:53;;;;;;;;;8.00;8.00;;;;;-146.67;25.48;72895.09;5067559;27;64048;-77
2022/06/18 06:53:19;;;;;;;;;8.33;8.33;;;;;-146.67;26.50;72899.06;5102648;27;61832;-75
2022/06/18 06:58:29;;;;;;;;;10.67;7.67;;;;;-146.67;26.65;72903.06;5086578;27;62263;-79
2022/06/18 07:00:57;;;;;;;;;9.00;9.00;;;;;-146.67;26.50;72891.09;5101282;27;63473;-75
2022/06/18 07:03:27;;;;;;;;;13.67;10.00;;;;;-146.67;26.36;72889.09;5104167;27;61986;-75
2022/06/18 07:05:53;;;;;;;;;11.00;8.67;;;;;-146.67;26.89;72891.09;5085361;27;62110;-75
2022/06/18 07:08:19;;;;;;;;;10.00;8.33;;;;;-146.67;27.01;72889.09;5077621;28;62063;-75
2022/06/18 07:10:47;;;;;;;;;11.33;8.67;;;;;-146.67;26.79;72891.09;5068891;27;62692;-75
2022/06/18 07:13:12;;;;;;;;;9.00;9.00;;;;;-146.67;26.53;72883.13;5081715;27;62044;-75
2022/06/18 07:15:38;;;;;;;;;11.33;9.67;;;;;-146.67;26.24;72873.13;5083651;28;62097;-75
2022/06/18 07:18:04;;;;;;;;;12.00;9.33;;;;;-146.67;26.33;72867.16;5081635;28;62000;-75
2022/06/18 07:20:30;;;;;;;;;11.00;8.00;;;;;-146.67;26.24;72873.13;5086031;27;61867;-75
2022/06/18 07:22:58;;;;;;;;;9.00;9.00;;;;;-146.67;26.24;72871.13;5100769;27;61735;-75
2022/06/18 07:25:25;;;;;;;;;5.33;5.33;;;;;-146.67;25.30;72875.13;5086837;27;61702;-75
2022/06/18 07:27:52;;;;;;;;;8.33;7.33;;;;;-146.67;25.43;72863.16;5083448;28;62078;-75
2022/06/18 07:30:19;;;;;;;;;7.33;6.33;;;;;-146.67;25.30;72863.16;5083567;27;62157;-75
2022/06/18 07:32:47;;;;;;;;;8.00;8.00;;;;;-146.67;24.71;72861.16;5073795;28;61923;-76
2022/06/18 07:35:20;;;;;;;;;11.00;10.00;;;;;-146.67;25.09;72857.16;5054613;28;62162;-75
2022/06/18 07:37:46;;;;;;;;;5.67;5.67;;;;;-146.67;24.96;72859.16;5081781;28;62128;-75
2022/06/18 07:40:12;;;;;;;;;10.00;7.00;;;;;-146.67;25.33;72857.16;5083261;27;62765;-75
2022/06/18 07:42:38;;;;;;;;;8.67;7.67;;;;;-146.67;25.06;72859.16;5082479;28;61883;-75
2022/06/18 07:45:05;;;;;;;;;7.33;6.00;;;;;-146.67;24.84;72859.16;5086703;27;61761;-76
2022/06/18 07:47:30;;;;;;;;;7.67;7.67;;;;;-146.67;24.86;72853.19;5103847;27;61821;-75
2022/06/18 07:49:56;;;;;;;;;7.33;6.00;;;;;-146.67;24.74;72851.19;5100809;27;62083;-75
2022/06/18 07:52:21;;;;;;;;;9.00;6.67;;;;;-146.67;24.88;72843.19;5101431;27;61984;-75
2022/06/18 07:54:46;;;;;;;;;6.67;6.67;;;;;-146.67;25.06;72839.22;5071003;27;61799;-75
2022/06/18 07:57:12;;;;;;;;;8.33;7.00;;;;;-146.67;24.66;72835.22;5064345;27;63565;-75
2022/06/18 07:59:38;;;;;;;;;8.33;8.00;;;;;-146.67;25.23;72831.22;5080509;27;63807;-75
2022/06/18 08:02:06;;;;;;;;;6.67;6.67;;;;;-146.67;24.90;72815.25;5092442;27;61730;-75
2022/06/18 08:04:31;;;;;;;;;6.67;6.67;;;;;-146.67;24.81;72807.28;5093737;27;61943;-75
2022/06/18 08:06:56;;;;;;;;;10.33;10.33;;;;;-146.67;24.51;72805.28;5080920;27;61912;-74
2022/06/18 08:09:22;;;;;;;;;8.33;7.00;;;;;-146.67;25.12;72801.28;5081737;28;62923;-74
2022/06/18 08:11:47;;;;;;;;;7.67;7.67;;;;;-146.67;24.94;72799.28;5082740;28;61757;-74
2022/06/18 08:14:13;;;;;;;;;8.33;7.00;;;;;-146.67;24.96;72787.31;5083106;28;62084;-75
2022/06/18 08:16:39;;;;;;;;;12.33;8.00;;;;;-146.67;25.02;72781.34;5081943;27;62010;-74
2022/06/18 08:19:04;;;;;;;;;8.67;8.00;;;;;-146.67;24.79;72771.34;5081651;28;61809;-74
2022/06/18 08:21:35;;;;;;;;;8.67;7.67;;;;;-146.67;24.59;72765.38;5082224;28;61866;-74
2022/06/18 08:24:05;;;;;;;;;10.00;9.00;;;;;-146.67;24.88;72757.38;5082541;28;61941;-75
2022/06/18 08:26:33;;;;;;;;;7.00;6.00;;;;;-146.67;24.28;72743.41;5080391;28;61898;-75
2022/06/18 08:29:01;;;;;;;;;7.67;7.67;;;;;-146.67;24.73;72745.41;5073046;28;62094;-74
2022/06/18 08:31:27;;;;;;;;;9.00;8.00;;;;;-146.67;24.35;72735.44;5059924;28;62566;-75
2022/06/18 08:33:53;;;;;;;;;7.00;7.00;;;;;-146.67;24.45;72727.44;5077935;28;62196;-74
2022/06/18 08:36:18;;;;;;;;;8.00;7.00;;;;;-146.67;24.35;72725.47;5074983;28;62184;-74
2022/06/18 08:38:47;;;;;;;;;10.00;7.00;;;;;-146.67;24.19;72715.47;5081212;27;63421;-74
2022/06/18 08:41:30;;;;;;;;;6.00;6.00;;;;;-146.67;24.03;72711.50;5081857;27;61948;-75
2022/06/18 08:44:05;;;;;;;;;6.00;5.33;;;;;-146.67;24.15;72703.50;5063214;28;62525;-74
2022/06/18 08:46:49;;;;;;;;;7.33;6.67;;;;;-146.67;24.04;72699.53;5097054;27;61963;-75
2022/06/18 08:49:33;;;;;;;;;8.00;7.33;;;;;-146.67;24.15;72689.53;5079571;28;62851;-74
2022/06/18 08:52:08;;;;;;;;;10.33;8.00;;;;;-146.67;24.33;72679.56;5060466;28;61818;-74
2022/06/18 08:54:40;;;;;;;;;7.67;6.00;;;;;-146.67;24.22;72667.59;5063662;28;61986;-74
2022/06/18 08:57:17;;;;;;;;;7.33;7.33;;;;;-146.67;24.57;72653.63;5081984;28;61825;-74
2022/06/18 09:00:09;;;;;;;;;9.33;7.33;;;;;-146.67;24.14;72653.63;5080340;28;62960;-74
2022/06/18 09:02:49;;;;;;;;;10.67;7.33;;;;;-146.67;24.11;72635.66;5057674;28;62219;-74
2022/06/18 09:05:33;;;;;;;;;9.00;9.00;;;;;-146.67;24.02;72627.69;5078360;28;62053;-74
2022/06/18 09:08:15;;;;;;;;;9.00;9.00;;;;;-146.67;24.09;72619.69;5079012;28;61742;-75
2022/06/18 09:11:02;;;;;;;;;7.67;7.33;;;;;-146.67;23.92;72615.72;5078760;28;62090;-74
2022/06/18 09:13:39;;;;;;;;;8.33;7.33;;;;;-146.67;23.62;72605.72;5063926;27;61978;-75
2022/06/18 09:16:08;;;;;;;;;8.00;8.00;;;;;-146.67;24.07;72607.72;5061703;28;61998;-75
2022/06/18 09:18:34;;;;;;;;;9.00;8.33;;;;;-146.67;23.74;72603.72;5076712;28;62045;-74
2022/06/18 09:21:03;;;;;;;;;9.67;8.00;;;;;-146.67;23.87;72601.75;5063797;28;61936;-75
2022/06/18 09:23:34;;;;;;;;;7.33;7.00;;;;;-146.67;23.84;72591.75;5081496;28;61884;-74
2022/06/18 09:26:03;;;;;;;;;7.00;7.00;;;;;-146.67;23.94;72581.78;5081403;27;61820;-75
2022/06/18 09:28:40;;;;;;;;;10.67;8.33;;;;;-146.67;23.76;72565.81;5063310;28;61819;-75
2022/06/18 09:31:15;;;;;;;;;6.33;6.33;;;;;-146.67;23.99;72561.81;5079673;28;62904;-76
2022/06/18 09:33:47;;;;;;;;;9.00;9.00;;;;;-146.67;23.76;72539.88;5062670;28;61999;-76
2022/06/18 09:36:19;;;;;;;;;8.33;7.33;;;;;-146.67;23.53;72537.88;5085255;28;61981;-76
2022/06/18 09:39:08;;;;;;;;;7.67;7.33;;;;;-146.67;23.74;72521.91;5070958;28;61859;-75
2022/06/18 09:41:48;;;;;;;;;8.33;8.00;;;;;-146.67;23.08;72503.97;5056421;28;63947;-76
2022/06/18 09:44:28;;;;;;;;;6.67;6.67;;;;;-146.67;23.82;72495.97;5069082;28;61888;-75
2022/06/18 09:47:01;;;;;;;;;8.33;8.33;;;;;-146.67;23.57;72482.00;5071261;27;61928;-76
2022/06/18 09:49:28;;;;;;;;;9.33;8.00;;;;;-146.67;23.11;72476.03;5064125;28;61851;-74
2022/06/18 09:54:33;;;;;;;;;7.33;5.33;;;;;-146.67;22.93;72448.09;5080523;27;62211;-75
2022/06/18 09:57:00;;;;;;;;;9.33;7.33;;;;;-146.67;23.37;72432.13;5082106;28;61908;-83
2022/06/18 09:59:41;;;;;;;;;5.67;5.67;;;;;-146.67;22.86;72418.16;5082671;28;62180;-79
2022/06/18 10:02:28;;;;;;;;;7.00;7.00;;;;;-146.67;22.50;72406.19;5072424;28;61844;-79
2022/06/18 10:07:48;;;;;;;;;10.33;7.33;;;;;-146.67;21.84;72372.25;5081939;28;62256;-74
2022/06/18 10:10:18;;;;;;;;;4.33;4.33;;;;;-146.67;22.26;72362.28;5045918;27;61859;-75
2022/06/18 10:12:48;;;;;;;;;8.67;5.33;;;;;-146.67;22.25;72336.34;5082729;28;63388;-75
2022/06/18 10:15:17;;;;;;;;;4.00;4.00;;;;;-146.67;21.71;72332.34;5083095;28;61780;-74
2022/06/18 10:18:20;;;;;;;;;5.33;4.00;;;;;-146.67;21.60;72324.38;5083053;28;61937;-74
2022/06/18 10:21:06;;;;;;;;;7.00;5.00;;;;;-146.67;21.71;72314.41;5074545;27;61853;-75
2022/06/18 10:23:45;;;;;;;;;3.33;3.33;;;;;-146.67;21.55;72296.44;5063157;28;64946;-75
2022/06/18 10:26:29;;;;;;;;;6.33;5.00;;;;;-146.67;21.69;72284.47;5064883;27;61876;-82
2022/06/18 10:29:06;;;;;;;;;5.67;4.33;;;;;-146.67;21.70;72262.50;5064259;28;62127;-74
2022/06/18 10:31:43;;;;;;;;;6.67;6.33;;;;;-146.67;21.42;72254.53;5052369;28;62142;-75
2022/06/18 10:34:12;;;;;;;;;8.00;6.33;;;;;-146.67;20.97;72234.59;5077493;28;63651;-74
2022/06/18 10:36:58;;;;;;;;;5.67;5.00;;;;;-146.67;21.48;72228.59;5063427;28;61837;-75
2022/06/18 10:39:47;;;;;;;;;4.33;4.00;;;;;-146.67;21.30;72206.66;5063549;28;61976;-74
2022/06/18 10:42:53;;;;;;;;;7.33;5.33;;;;;-146.67;21.53;72194.69;5079856;27;62015;-75
2022/06/18 10:45:34;;;;;;;;;7.00;5.00;;;;;-146.67;21.48;72182.69;5083042;28;62825;-74
2022/06/18 10:48:01;;;;;;;;;10.33;7.67;;;;;-146.67;21.31;72158.75;5083565;28;62003;-74
2022/06/18 10:50:28;;;;;;;;;5.00;4.00;;;;;-146.67;20.94;72150.78;5082936;27;61980;-74
2022/06/18 10:53:04;;;;;;;;;7.33;6.00;;;;;-146.67;21.16;72134.81;5084258;27;61893;-75
2022/06/18 10:55:30;;;;;;;;;6.00;5.00;;;;;-146.67;20.79;72120.84;5103872;27;61965;-74
2022/06/18 10:58:15;;;;;;;;;7.33;4.33;;;;;-146.67;21.08;72102.91;5104020;27;62126;-75
2022/06/18 11:00:54;;;;;;;;;8.00;7.00;;;;;-146.67;20.98;72098.91;5098360;27;62170;-77
2022/06/18 11:03:25;;;;;;;;;10.00;6.67;;;;;-146.67;21.13;72080.94;5083001;27;61732;-77
2022/06/18 11:05:51;;;;;;;;;8.33;6.67;;;;;-146.67;21.16;72064.97;5082340;27;62720;-76
2022/06/18 11:08:24;;;;;;;;;7.00;6.67;;;;;-146.67;21.28;72049.03;5062527;28;62056;-76
2022/06/18 11:11:06;;;;;;;;;7.33;7.00;;;;;-146.67;21.04;72025.06;5080977;27;61826;-77
2022/06/18 11:13:35;;;;;;;;;7.33;5.33;;;;;-146.67;20.98;72023.09;5081816;27;61857;-77
2022/06/18 11:16:25;;;;;;;;;5.33;5.33;;;;;-146.67;21.02;71999.13;5080461;28;62149;-77
2022/06/18 11:19:13;;;;;;;;;6.67;5.67;;;;;-146.67;21.09;71977.19;5069374;28;62140;-77
2022/06/18 11:21:44;;;;;;;;;7.00;7.00;;;;;-146.67;21.19;71965.22;5083491;27;61903;-75
2022/06/18 11:24:15;;;;;;;;;7.00;7.00;;;;;-146.67;20.90;71945.28;5080660;27;61894;-75
2022/06/18 11:26:56;;;;;;;;;8.00;6.33;;;;;-146.67;20.75;71933.31;5078136;27;62739;-75
2022/06/18 11:29:24;;;;;;;;;8.00;7.00;;;;;-146.67;20.88;71909.34;5078571;28;62090;-75
2022/06/18 11:31:53;;;;;;;;;9.00;8.00;;;;;-146.67;20.50;71893.41;5079152;27;62024;-76
2022/06/18 11:34:24;;;;;;;;;8.67;4.00;;;;;-146.67;20.51;71873.44;5080634;27;61925;-78
2022/06/18 11:36:53;;;;;;;;;7.00;6.00;;;;;-146.67;20.84;71849.50;5081947;27;61996;-76
2022/06/18 11:39:35;;;;;;;;;6.67;6.67;;;;;-146.67;20.47;71829.56;5079991;28;61869;-76
2022/06/18 11:42:39;;;;;;;;;8.00;8.00;;;;;-146.67;20.24;71805.63;5081664;27;62006;-75
2022/06/18 11:45:23;;;;;;;;;6.00;5.33;;;;;-146.67;20.16;71745.75;5064777;27;61926;-76
2022/06/18 11:48:03;;;;;;;;;4.00;4.00;;;;;-146.67;19.80;71657.97;5079025;28;61843;-76